Time;durP1;ratioP1;P1;durP2;ratioP2;P2;SDS_P1;SDS_P2;PMS_P1;PMS_P2;Temp;Humidity;BMP_temperature;BMP_pressure;BME280_temperature;BME280_humidity;BME280_pressure;Samples;Min_cycle;Max_cycle;Signal;HPM_P1;HPM_P2
2021/11/06 00:00:18;;;;;;;5.68;1.17;;;2.20;99.90;;;;;;5139023;27;20538;-65
2021/11/06 00:02:44;;;;;;;3.53;1.08;;;2.30;99.90;;;;;;5124631;27;20028;-65
2021/11/06 00:05:09;;;;;;;3.08;0.80;;;2.30;99.90;;;;;;5131185;27;20487;-66
2021/11/06 00:07:35;;;;;;;4.47;1.60;;;2.30;99.90;;;;;;5132580;27;20417;-66
2021/11/06 00:10:01;;;;;;;3.38;0.98;;;2.30;99.90;;;;;;5124554;27;20072;-65
2021/11/06 00:12:27;;;;;;;0.85;0.70;;;2.30;99.90;;;;;;5127246;27;20019;-65
2021/11/06 00:14:53;;;;;;;2.55;1.05;;;2.20;99.90;;;;;;5132636;27;20577;-65
2021/11/06 00:17:18;;;;;;;2.08;1.20;;;2.20;99.90;;;;;;5128641;27;20056;-65
2021/11/06 00:19:44;;;;;;;0.90;0.60;;;2.20;99.90;;;;;;5124392;27;20028;-65
2021/11/06 00:22:12;;;;;;;2.53;0.82;;;2.20;99.90;;;;;;5131169;27;20019;-65
2021/11/06 00:24:37;;;;;;;2.05;0.90;;;2.10;99.90;;;;;;5132546;27;20035;-65
2021/11/06 00:27:03;;;;;;;2.28;0.80;;;2.10;99.90;;;;;;5118664;27;20020;-65
2021/11/06 00:29:29;;;;;;;0.82;0.70;;;2.10;99.90;;;;;;5130759;27;20019;-65
2021/11/06 00:31:55;;;;;;;2.30;0.85;;;2.10;99.90;;;;;;5120174;27;20015;-65
2021/11/06 00:34:21;;;;;;;1.60;0.80;;;2.10;99.90;;;;;;5128681;27;20043;-65
2021/11/06 00:36:47;;;;;;;2.85;0.88;;;2.10;99.90;;;;;;5124576;27;20490;-65
2021/11/06 00:39:12;;;;;;;2.10;0.70;;;2.00;99.90;;;;;;5130794;27;20023;-65
2021/11/06 00:41:38;;;;;;;5.35;0.70;;;2.00;99.90;;;;;;5132752;27;20031;-64
2021/11/06 00:44:04;;;;;;;1.15;0.80;;;2.00;99.90;;;;;;5118474;27;20066;-64
2021/11/06 00:46:30;;;;;;;4.97;0.98;;;2.00;99.90;;;;;;5130694;27;20467;-64
2021/11/06 00:48:56;;;;;;;1.65;0.90;;;2.00;99.90;;;;;;5123866;27;20096;-64
2021/11/06 00:51:22;;;;;;;1.23;0.75;;;2.00;99.90;;;;;;5128578;27;20093;-64
2021/11/06 00:53:48;;;;;;;6.10;0.85;;;2.10;99.90;;;;;;5132524;27;20023;-65
2021/11/06 00:56:14;;;;;;;0.98;0.75;;;2.10;99.90;;;;;;5126596;27;20475;-64
2021/11/06 00:58:40;;;;;;;1.05;0.65;;;2.00;99.90;;;;;;5134539;27;20022;-64
2021/11/06 01:01:06;;;;;;;1.88;0.90;;;2.00;99.90;;;;;;5135504;27;20047;-64
2021/11/06 01:03:32;;;;;;;1.75;0.75;;;1.90;99.90;;;;;;5122668;27;20118;-65
2021/11/06 01:05:59;;;;;;;4.95;1.73;;;1.90;99.90;;;;;;5120612;27;20055;-65
2021/11/06 01:08:25;;;;;;;4.55;0.80;;;1.80;99.90;;;;;;5129022;27;20020;-65
2021/11/06 01:10:50;;;;;;;2.90;0.90;;;1.80;99.90;;;;;;5127639;27;20409;-65
2021/11/06 01:13:18;;;;;;;5.03;1.10;;;1.80;99.90;;;;;;5120810;27;20364;-65
2021/11/06 01:15:44;;;;;;;1.65;0.70;;;1.80;99.90;;;;;;5124052;27;20468;-65
2021/11/06 01:18:09;;;;;;;3.40;0.90;;;1.80;99.90;;;;;;5129054;27;20065;-65
2021/11/06 01:20:35;;;;;;;2.13;0.77;;;1.80;99.90;;;;;;5123876;27;20042;-65
2021/11/06 01:23:01;;;;;;;4.18;0.90;;;1.80;99.90;;;;;;5122204;27;20074;-65
2021/11/06 01:25:27;;;;;;;2.85;0.80;;;1.70;99.90;;;;;;5131525;27;20039;-65
2021/11/06 01:27:53;;;;;;;1.20;0.57;;;1.70;99.90;;;;;;5135230;27;20027;-65
2021/11/06 01:30:18;;;;;;;3.55;0.80;;;1.70;99.90;;;;;;5133168;27;20019;-65
2021/11/06 01:32:45;;;;;;;2.50;0.80;;;1.70;99.90;;;;;;5129099;27;20356;-65
2021/11/06 01:35:11;;;;;;;1.20;0.57;;;1.70;99.90;;;;;;5121331;27;20051;-65
2021/11/06 01:37:37;;;;;;;1.25;0.80;;;1.70;99.90;;;;;;5121530;27;20380;-64
2021/11/06 01:40:07;;;;;;;2.13;0.90;;;1.70;99.90;;;;;;5128438;27;20501;-63
2021/11/06 01:42:32;;;;;;;6.82;0.80;;;1.70;99.90;;;;;;5114207;28;20024;-64
2021/11/06 01:44:58;;;;;;;2.30;0.90;;;1.70;99.90;;;;;;5128317;27;20600;-65
2021/11/06 01:47:24;;;;;;;0.60;0.60;;;1.70;99.90;;;;;;5124016;27;20019;-64
2021/11/06 01:49:50;;;;;;;1.90;0.85;;;1.70;99.90;;;;;;5120057;27;20379;-64
2021/11/06 01:52:16;;;;;;;3.08;0.80;;;1.70;99.90;;;;;;5127211;27;20015;-64
2021/11/06 01:54:42;;;;;;;3.50;0.65;;;1.70;99.90;;;;;;5127566;27;20034;-64
2021/11/06 01:57:07;;;;;;;1.20;0.80;;;1.70;99.90;;;;;;5120119;27;20020;-64
2021/11/06 01:59:33;;;;;;;3.72;0.85;;;1.70;99.90;;;;;;5134254;27;20038;-64
2021/11/06 02:01:59;;;;;;;3.00;0.73;;;1.70;99.90;;;;;;5119781;27;20102;-63
2021/11/06 02:04:25;;;;;;;2.45;0.75;;;1.70;99.90;;;;;;5125102;27;20031;-63
2021/11/06 02:06:51;;;;;;;1.58;0.80;;;1.70;99.90;;;;;;5128103;27;20114;-63
2021/11/06 02:09:17;;;;;;;1.77;0.90;;;1.70;99.90;;;;;;5120955;27;20019;-63
2021/11/06 02:11:43;;;;;;;3.83;0.80;;;1.70;99.90;;;;;;5120517;27;20027;-63
2021/11/06 02:14:09;;;;;;;2.28;0.80;;;1.70;99.90;;;;;;5127649;27;20542;-63
2021/11/06 02:16:35;;;;;;;6.15;1.92;;;1.70;99.90;;;;;;5113401;28;20016;-63
2021/11/06 02:19:04;;;;;;;1.30;0.70;;;1.70;99.90;;;;;;5127828;27;20047;-64
2021/11/06 02:21:30;;;;;;;2.05;0.82;;;1.60;99.90;;;;;;5123355;27;20080;-64
2021/11/06 02:55:44;;;;;;;2.88;0.73;;;1.50;99.90;;;;;;5123268;27;20055;-65
2021/11/06 02:58:11;;;;;;;2.92;0.90;;;1.50;99.90;;;;;;5133184;27;20023;-65
2021/11/06 03:00:37;;;;;;;2.33;0.70;;;1.50;99.90;;;;;;5132991;27;20035;-65
2021/11/06 03:03:03;;;;;;;1.25;0.70;;;1.50;99.90;;;;;;5132853;27;20033;-65
2021/11/06 03:05:29;;;;;;;1.67;0.80;;;1.50;99.90;;;;;;5112663;28;20035;-65
2021/11/06 03:07:54;;;;;;;3.63;1.10;;;1.50;99.90;;;;;;5125419;27;20045;-64
2021/11/06 03:10:20;;;;;;;1.42;0.95;;;1.50;99.90;;;;;;5118692;27;20493;-64
2021/11/06 03:12:48;;;;;;;1.75;0.80;;;1.50;99.90;;;;;;5122066;27;20023;-64
2021/11/06 03:15:15;;;;;;;1.00;0.70;;;1.50;99.90;;;;;;5126748;27;20488;-64
2021/11/06 03:17:41;;;;;;;4.50;0.70;;;1.50;99.90;;;;;;5121854;27;20023;-64
2021/11/06 03:20:07;;;;;;;1.27;0.70;;;1.50;99.90;;;;;;5118516;27;20035;-64
2021/11/06 03:22:33;;;;;;;3.47;0.70;;;1.50;99.90;;;;;;5125259;27;20038;-64
2021/11/06 03:25:02;;;;;;;3.15;0.85;;;1.40;99.90;;;;;;5125075;27;20399;-64
2021/11/06 03:27:28;;;;;;;2.78;0.93;;;1.40;99.90;;;;;;5118228;27;20082;-64
2021/11/06 03:29:54;;;;;;;5.35;2.65;;;1.40;99.90;;;;;;5120577;27;20023;-64
2021/11/06 03:32:20;;;;;;;2.67;0.75;;;1.50;99.90;;;;;;5130330;27;20463;-64
2021/11/06 03:34:46;;;;;;;3.05;0.73;;;1.50;99.90;;;;;;5126786;27;20025;-64
2021/11/06 03:37:12;;;;;;;3.75;0.98;;;1.50;99.90;;;;;;5124526;27;20025;-65
2021/11/06 03:39:38;;;;;;;0.70;0.70;;;1.50;99.90;;;;;;5117857;27;20046;-64
2021/11/06 03:42:05;;;;;;;2.63;0.80;;;1.50;99.90;;;;;;5122400;27;20062;-65
2021/11/06 03:44:31;;;;;;;1.77;0.70;;;1.50;99.90;;;;;;5126104;27;20126;-65
2021/11/06 03:46:57;;;;;;;1.20;0.90;;;1.50;99.90;;;;;;5120387;28;20022;-64
2021/11/06 03:49:23;;;;;;;1.65;0.73;;;1.50;99.90;;;;;;5118168;28;20110;-64
2021/11/06 03:51:49;;;;;;;2.17;0.80;;;1.50;99.90;;;;;;5126205;28;20481;-64
2021/11/06 03:54:14;;;;;;;3.83;0.90;;;1.50;99.90;;;;;;5124173;28;20467;-64
2021/11/06 03:56:41;;;;;;;2.35;0.70;;;1.50;99.90;;;;;;5117884;28;20103;-64
2021/11/06 03:59:07;;;;;;;3.65;0.80;;;1.50;99.90;;;;;;5132462;28;20098;-64
2021/11/06 04:01:34;;;;;;;2.05;0.82;;;1.50;99.90;;;;;;5116541;28;20466;-64
2021/11/06 04:04:00;;;;;;;1.88;0.80;;;1.50;99.90;;;;;;5123713;28;20031;-64
2021/11/06 04:06:25;;;;;;;3.20;0.80;;;1.50;99.90;;;;;;5126177;28;20038;-64
2021/11/06 04:08:54;;;;;;;3.03;0.70;;;1.50;99.90;;;;;;5117986;28;20011;-64
2021/11/06 04:11:20;;;;;;;3.00;0.80;;;1.50;99.90;;;;;;5119407;28;20028;-64
2021/11/06 04:13:46;;;;;;;3.42;0.70;;;1.40;99.90;;;;;;5125754;28;20012;-64
2021/11/06 04:16:13;;;;;;;6.13;1.30;;;1.40;99.90;;;;;;5122793;28;20028;-64
2021/11/06 04:18:38;;;;;;;2.95;0.90;;;1.30;99.90;;;;;;5117465;28;20030;-64
2021/11/06 04:21:04;;;;;;;2.60;0.80;;;1.30;99.90;;;;;;5123503;28;20032;-64
2021/11/06 04:23:30;;;;;;;2.35;0.88;;;1.40;99.90;;;;;;5126031;28;20375;-64
2021/11/06 04:25:56;;;;;;;2.05;0.70;;;1.40;99.90;;;;;;5118521;28;20027;-64
2021/11/06 04:28:23;;;;;;;3.35;0.70;;;1.40;99.90;;;;;;5119028;28;20024;-64
2021/11/06 04:30:49;;;;;;;0.60;0.60;;;1.40;99.90;;;;;;5127119;28;20061;-64
2021/11/06 04:33:14;;;;;;;2.97;0.70;;;1.40;99.90;;;;;;5125071;28;20521;-64
2021/11/06 04:35:40;;;;;;;1.45;0.93;;;1.30;99.90;;;;;;5124936;27;20387;-64
2021/11/06 04:38:06;;;;;;;1.85;0.52;;;1.40;99.90;;;;;;5121843;27;20363;-64
2021/11/06 04:40:32;;;;;;;2.65;0.80;;;1.30;99.90;;;;;;5124515;27;20035;-64
2021/11/06 04:42:58;;;;;;;3.58;1.00;;;1.30;99.90;;;;;;5132765;27;20027;-65
2021/11/06 04:45:23;;;;;;;5.05;0.65;;;1.30;99.90;;;;;;5126199;27;20107;-65
2021/11/06 04:47:49;;;;;;;3.22;0.80;;;1.30;99.90;;;;;;5129427;27;20055;-65
2021/11/06 04:50:15;;;;;;;1.27;0.70;;;1.30;99.90;;;;;;5122492;27;20030;-64
2021/11/06 04:52:41;;;;;;;1.80;0.80;;;1.30;99.90;;;;;;5135600;27;20102;-64
2021/11/06 04:55:11;;;;;;;3.50;0.90;;;1.30;99.90;;;;;;5121130;27;20527;-63
2021/11/06 04:57:37;;;;;;;2.72;0.82;;;1.30;99.90;;;;;;5135558;27;20027;-64
2021/11/06 05:00:08;;;;;;;1.77;0.70;;;1.30;99.90;;;;;;5131191;27;20050;-65
2021/11/06 05:02:33;;;;;;;2.95;0.80;;;1.30;99.90;;;;;;5125663;27;20076;-64
2021/11/06 05:04:59;;;;;;;2.75;0.90;;;1.20;99.90;;;;;;5120607;27;20031;-64
2021/11/06 05:07:25;;;;;;;3.55;0.88;;;1.20;99.90;;;;;;5126746;27;20106;-64
2021/11/06 05:09:52;;;;;;;3.95;0.70;;;1.20;99.90;;;;;;5129036;27;20023;-64
2021/11/06 05:12:21;;;;;;;3.22;0.85;;;1.20;99.90;;;;;;5121582;27;20492;-64
2021/11/06 05:14:48;;;;;;;2.65;0.90;;;1.30;99.90;;;;;;5121639;27;20070;-64
2021/11/06 05:17:15;;;;;;;1.05;0.73;;;1.20;99.90;;;;;;5129225;27;20027;-64
2021/11/06 05:19:41;;;;;;;4.53;0.80;;;1.20;99.90;;;;;;5126561;27;20102;-64
2021/11/06 05:22:08;;;;;;;3.40;1.10;;;1.20;99.90;;;;;;5120879;27;20030;-65
2021/11/06 05:24:34;;;;;;;1.08;0.80;;;1.20;99.90;;;;;;5125053;27;20028;-64
2021/11/06 05:27:00;;;;;;;2.45;0.95;;;1.20;99.90;;;;;;5128634;27;20038;-64
2021/11/06 05:29:26;;;;;;;2.80;0.60;;;1.20;99.90;;;;;;5122645;27;20023;-64
2021/11/06 05:31:52;;;;;;;2.67;0.70;;;1.20;99.90;;;;;;5130587;27;20379;-63
2021/11/06 05:34:18;;;;;;;1.13;0.70;;;1.20;99.90;;;;;;5120747;27;20024;-63
2021/11/06 05:36:44;;;;;;;2.25;0.70;;;1.20;99.90;;;;;;5126883;27;20084;-63
2021/11/06 05:39:09;;;;;;;2.80;0.80;;;1.20;99.90;;;;;;5128925;27;20023;-68
2021/11/06 05:41:35;;;;;;;2.30;1.20;;;2.90;99.90;;;;;;5120378;27;20037;-63
2021/11/06 05:44:01;;;;;;;3.20;0.95;;;5.80;99.90;;;;;;5122034;27;20120;-64
2021/11/06 05:46:27;;;;;;;3.20;0.82;;;5.90;99.90;;;;;;5132434;27;20027;-64
2021/11/06 05:48:53;;;;;;;3.47;0.90;;;5.00;99.90;;;;;;5130710;27;20016;-64
2021/11/06 05:51:19;;;;;;;1.70;0.85;;;4.20;99.90;;;;;;5129331;27;20035;-64
2021/11/06 05:53:45;;;;;;;2.67;0.80;;;3.60;99.90;;;;;;5123474;27;20069;-64
2021/11/06 05:56:10;;;;;;;7.30;0.90;;;3.20;99.90;;;;;;5135182;27;20034;-65
2021/11/06 05:58:36;;;;;;;3.67;0.80;;;2.90;99.90;;;;;;5119896;27;20051;-65
2021/11/06 06:01:02;;;;;;;2.55;0.80;;;2.60;99.90;;;;;;5128615;27;20055;-65
2021/11/06 06:03:28;;;;;;;1.67;0.70;;;2.40;99.90;;;;;;5125538;27;20031;-65
2021/11/06 06:05:54;;;;;;;1.27;0.73;;;2.20;99.90;;;;;;5121993;27;20031;-64
2021/11/06 06:08:19;;;;;;;2.58;0.80;;;2.10;99.90;;;;;;5132405;27;20484;-64
2021/11/06 06:10:45;;;;;;;0.77;0.70;;;2.00;99.90;;;;;;5126231;27;20039;-65
2021/11/06 06:13:11;;;;;;;4.35;1.15;;;1.90;99.90;;;;;;5116096;27;20068;-63
2021/11/06 06:15:37;;;;;;;2.17;0.70;;;1.80;99.90;;;;;;5128519;27;20016;-64
2021/11/06 06:18:03;;;;;;;5.28;0.73;;;1.80;99.90;;;;;;5125312;27;20062;-64
2021/11/06 06:20:29;;;;;;;2.08;0.80;;;1.70;99.90;;;;;;5119923;27;20047;-63
2021/11/06 06:22:54;;;;;;;1.83;0.90;;;1.70;99.90;;;;;;5123979;27;20020;-63
2021/11/06 06:25:23;;;;;;;1.70;0.70;;;1.90;99.90;;;;;;5127979;27;20121;-64
2021/11/06 06:27:49;;;;;;;1.85;0.63;;;1.80;99.90;;;;;;5122065;27;20023;-64
2021/11/06 06:30:16;;;;;;;3.28;1.00;;;1.70;99.90;;;;;;5126244;27;20414;-63
2021/11/06 06:32:42;;;;;;;6.10;0.82;;;1.60;99.90;;;;;;5133870;27;20094;-63
2021/11/06 06:35:09;;;;;;;3.08;0.90;;;1.50;99.90;;;;;;5124620;27;20487;-63
2021/11/06 06:37:35;;;;;;;1.00;0.90;;;1.50;99.90;;;;;;5127422;27;20027;-63
2021/11/06 06:40:01;;;;;;;3.45;0.85;;;1.40;99.90;;;;;;5119922;27;20026;-63
2021/11/06 06:42:27;;;;;;;0.85;0.75;;;1.40;99.90;;;;;;5120224;27;20451;-63
2021/11/06 06:44:53;;;;;;;6.50;0.70;;;1.30;99.90;;;;;;5127337;27;20061;-63
2021/11/06 06:47:19;;;;;;;2.17;0.70;;;1.30;99.90;;;;;;5124272;27;20016;-63
2021/11/06 06:49:46;;;;;;;2.75;1.00;;;1.20;99.90;;;;;;5118525;27;20587;-63
2021/11/06 06:52:13;;;;;;;1.77;1.00;;;1.20;99.90;;;;;;5124099;27;20023;-63
2021/11/06 06:54:39;;;;;;;2.50;0.80;;;1.20;99.90;;;;;;5113908;27;20035;-63
2021/11/06 06:57:05;;;;;;;2.30;0.90;;;1.20;99.90;;;;;;5125830;27;20036;-64
2021/11/06 06:59:33;;;;;;;3.67;0.98;;;1.20;99.90;;;;;;5111798;28;20442;-64
2021/11/06 07:02:00;;;;;;;3.35;1.00;;;1.20;99.90;;;;;;5127205;27;20031;-65
2021/11/06 07:04:27;;;;;;;4.65;0.95;;;1.50;99.90;;;;;;5124682;27;20080;-65
2021/11/06 07:06:53;;;;;;;2.70;0.95;;;1.40;99.90;;;;;;5118794;27;20051;-65
2021/11/06 07:09:20;;;;;;;6.60;1.10;;;1.30;99.90;;;;;;5123051;27;20139;-64
2021/11/06 07:11:46;;;;;;;1.38;0.75;;;1.30;99.90;;;;;;5127104;27;20023;-65
2021/11/06 07:14:12;;;;;;;2.63;1.08;;;1.20;99.90;;;;;;5120879;27;20465;-65
2021/11/06 07:16:38;;;;;;;1.27;0.70;;;1.20;99.90;;;;;;5133304;27;20051;-65
2021/11/06 07:19:04;;;;;;;1.15;0.90;;;1.20;99.90;;;;;;5132500;27;20031;-66
2021/11/06 07:21:30;;;;;;;0.70;0.70;;;1.20;99.90;;;;;;5143874;27;20041;-65
2021/11/06 07:23:56;;;;;;;1.35;0.70;;;1.20;99.90;;;;;;5142892;27;20015;-65
2021/11/06 07:26:22;;;;;;;2.08;0.68;;;1.20;99.90;;;;;;5137124;27;20106;-64
2021/11/06 07:28:47;;;;;;;1.02;0.73;;;1.30;99.90;;;;;;5131520;27;20042;-64
2021/11/06 07:31:14;;;;;;;4.78;1.00;;;1.30;99.90;;;;;;5132867;27;20392;-64
2021/11/06 07:33:40;;;;;;;4.18;0.80;;;1.30;99.90;;;;;;5153728;27;20019;-64
2021/11/06 07:36:05;;;;;;;2.50;0.88;;;1.30;99.90;;;;;;5153338;27;20049;-63
2021/11/06 07:38:31;;;;;;;6.28;1.00;;;1.30;99.90;;;;;;5153379;27;20110;-63
2021/11/06 07:40:57;;;;;;;3.35;1.23;;;1.20;99.90;;;;;;5153597;27;20086;-63
2021/11/06 07:43:23;;;;;;;2.78;1.08;;;1.30;99.90;;;;;;5153813;27;20026;-65
2021/11/06 07:45:49;;;;;;;1.88;0.80;;;1.80;99.90;;;;;;5153797;27;20031;-63
2021/11/06 07:48:15;;;;;;;2.70;0.90;;;2.40;99.90;;;;;;5153663;27;20019;-63
2021/11/06 07:50:40;;;;;;;1.55;0.90;;;2.60;99.90;;;;;;5153921;27;20106;-63
2021/11/06 07:53:06;;;;;;;3.80;1.00;;;2.20;99.90;;;;;;5153585;27;20586;-63
2021/11/06 07:55:32;;;;;;;4.45;1.25;;;1.90;99.90;;;;;;5153885;27;20526;-64
2021/11/06 07:57:58;;;;;;;1.70;0.90;;;1.70;99.90;;;;;;5153451;27;20436;-64
2021/11/06 08:00:24;;;;;;;4.60;1.20;;;1.60;99.90;;;;;;5153395;27;20035;-64
2021/11/06 08:02:50;;;;;;;2.50;0.90;;;1.50;99.90;;;;;;5153376;27;20083;-64
2021/11/06 08:05:17;;;;;;;2.10;0.98;;;1.50;99.90;;;;;;5152119;27;20034;-63
2021/11/06 08:07:43;;;;;;;3.35;1.08;;;1.90;99.90;;;;;;5153545;27;20023;-62
2021/11/06 08:10:09;;;;;;;3.08;0.85;;;1.90;99.90;;;;;;5153275;27;20034;-63
2021/11/06 08:12:40;;;;;;;4.15;1.30;;;1.80;99.90;;;;;;5156793;27;20011;-62
2021/11/06 08:15:08;;;;;;;2.40;0.98;;;1.70;99.90;;;;;;5157417;27;20428;-63
2021/11/06 08:17:34;;;;;;;3.05;0.75;;;1.60;99.90;;;;;;5157518;27;20015;-63
2021/11/06 08:19:59;;;;;;;1.40;1.00;;;1.50;99.90;;;;;;5151149;27;20095;-63
2021/11/06 08:22:25;;;;;;;0.90;0.73;;;1.50;99.90;;;;;;5139517;27;20540;-63
2021/11/06 08:24:51;;;;;;;2.58;0.90;;;1.40;99.90;;;;;;5136443;27;20027;-63
2021/11/06 08:27:17;;;;;;;2.17;0.93;;;1.40;99.90;;;;;;5136763;27;20024;-63
2021/11/06 08:29:43;;;;;;;1.85;0.80;;;1.40;99.90;;;;;;5136633;27;20023;-63
2021/11/06 08:32:08;;;;;;;0.88;0.80;;;1.40;99.90;;;;;;5136889;27;20031;-63
2021/11/06 08:34:34;;;;;;;3.42;1.20;;;1.40;99.90;;;;;;5136653;27;20028;-63
2021/11/06 08:37:00;;;;;;;1.17;0.70;;;1.40;99.90;;;;;;5136426;27;20026;-63
2021/11/06 08:39:27;;;;;;;6.28;2.65;;;1.50;99.90;;;;;;5136553;27;20133;-63
2021/11/06 08:41:55;;;;;;;3.65;2.13;;;1.60;99.90;;;;;;5136322;27;20605;-65
2021/11/06 08:44:22;;;;;;;4.95;2.15;;;2.00;99.90;;;;;;5136500;27;20091;-65
2021/11/06 08:46:51;;;;;;;2.95;1.58;;;2.00;99.90;;;;;;5144676;27;20097;-65
2021/11/06 08:49:18;;;;;;;5.45;2.65;;;2.00;99.90;;;;;;5136569;27;20031;-64
2021/11/06 08:51:47;;;;;;;3.90;2.78;;;2.00;99.90;;;;;;5136062;27;20053;-64
2021/11/06 08:54:15;;;;;;;5.05;2.90;;;2.00;99.90;;;;;;5136269;27;20031;-63
2021/11/06 08:56:42;;;;;;;3.60;1.58;;;2.00;99.90;;;;;;5136091;27;20023;-63
2021/11/06 08:59:10;;;;;;;1.98;1.20;;;2.00;99.90;;;;;;5135732;27;20413;-64
2021/11/06 09:01:35;;;;;;;1.52;1.20;;;2.00;99.90;;;;;;5136002;27;20054;-64
2021/11/06 09:04:01;;;;;;;1.88;1.13;;;2.00;99.90;;;;;;5135809;27;20063;-63
2021/11/06 09:06:27;;;;;;;3.88;1.00;;;2.10;99.90;;;;;;5135932;27;20031;-64
2021/11/06 09:08:53;;;;;;;3.13;1.50;;;2.10;99.90;;;;;;5135939;27;20019;-64
2021/11/06 09:11:19;;;;;;;2.35;1.27;;;2.50;99.90;;;;;;5135651;27;20026;-64
2021/11/06 09:13:54;;;;;;;2.17;1.30;;;3.00;99.90;;;;;;5135344;27;20102;-64
2021/11/06 09:16:20;;;;;;;3.75;1.40;;;2.90;99.90;;;;;;5134432;27;20121;-64
2021/11/06 09:18:46;;;;;;;5.03;1.25;;;3.50;99.90;;;;;;5135537;27;20026;-64
2021/11/06 09:21:15;;;;;;;1.55;0.90;;;5.50;99.90;;;;;;5134374;27;20023;-64
2021/11/06 09:23:41;;;;;;;2.75;1.27;;;5.70;99.90;;;;;;5134647;27;20027;-64
2021/11/06 09:26:09;;;;;;;1.95;0.95;;;4.60;99.90;;;;;;5135512;27;20039;-64
2021/11/06 09:28:40;;;;;;;1.25;0.80;;;3.90;99.90;;;;;;5135535;27;20019;-64
2021/11/06 09:31:07;;;;;;;0.75;0.75;;;3.40;99.90;;;;;;5135317;27;20027;-64
2021/11/06 09:33:32;;;;;;;1.40;0.63;;;3.20;99.90;;;;;;5135688;27;20016;-64
2021/11/06 09:35:58;;;;;;;0.93;0.70;;;3.00;99.90;;;;;;5135288;27;20034;-64
2021/11/06 09:38:24;;;;;;;2.05;1.17;;;2.90;99.90;;;;;;5135343;27;20398;-64
2021/11/06 09:40:50;;;;;;;2.22;0.68;;;2.90;99.90;;;;;;5135246;27;20050;-64
2021/11/06 09:43:16;;;;;;;1.63;0.80;;;2.80;99.90;;;;;;5135248;27;20023;-64
2021/11/06 09:45:44;;;;;;;2.58;0.70;;;2.80;99.90;;;;;;5134973;27;20035;-64
2021/11/06 09:48:10;;;;;;;5.95;0.80;;;2.70;99.90;;;;;;5134986;27;20494;-64
2021/11/06 09:50:36;;;;;;;1.58;0.80;;;2.70;99.90;;;;;;5135283;27;20034;-64
2021/11/06 09:53:02;;;;;;;1.30;0.70;;;2.70;99.90;;;;;;5135134;27;20409;-64
2021/11/06 09:55:29;;;;;;;1.50;0.80;;;2.70;99.90;;;;;;5135210;27;20024;-64
2021/11/06 09:57:55;;;;;;;1.88;0.82;;;2.80;99.90;;;;;;5134891;27;20446;-64
2021/11/06 10:00:22;;;;;;;1.15;0.80;;;2.70;99.90;;;;;;5134558;27;20101;-64
2021/11/06 10:02:50;;;;;;;2.70;1.02;;;2.70;99.90;;;;;;5135092;27;20023;-64
2021/11/06 10:05:16;;;;;;;2.33;1.00;;;2.70;99.90;;;;;;5134366;27;20122;-65
2021/11/06 10:07:42;;;;;;;1.05;0.70;;;2.70;99.90;;;;;;5134960;27;20102;-64
2021/11/06 10:10:17;;;;;;;3.28;0.90;;;2.80;99.90;;;;;;5134608;27;20023;-64
2021/11/06 10:12:49;;;;;;;2.10;0.82;;;2.80;99.90;;;;;;5134539;27;20375;-64
2021/11/06 10:15:17;;;;;;;2.97;0.90;;;2.80;99.90;;;;;;5134635;27;20051;-64
2021/11/06 10:17:43;;;;;;;3.33;0.90;;;2.70;99.90;;;;;;5134477;27;20026;-64
2021/11/06 10:20:30;;;;;;;2.83;1.08;;;2.70;99.90;;;;;;5134176;27;20034;-64
2021/11/06 10:23:03;;;;;;;3.22;0.90;;;2.70;99.90;;;;;;5134286;27;20023;-65
2021/11/06 10:25:29;;;;;;;3.85;0.93;;;2.70;99.90;;;;;;5134170;27;20031;-65
2021/11/06 10:27:59;;;;;;;1.92;0.70;;;2.70;99.90;;;;;;5134302;27;20041;-65
2021/11/06 10:30:27;;;;;;;1.15;0.70;;;2.70;99.90;;;;;;5134174;27;20506;-65
2021/11/06 10:32:56;;;;;;;1.45;0.90;;;2.70;99.90;;;;;;5134067;27;20031;-64
2021/11/06 10:35:23;;;;;;;2.13;1.17;;;2.70;99.90;;;;;;5133831;27;20030;-64
2021/11/06 10:37:59;;;;;;;2.55;1.42;;;2.70;99.90;;;;;;5134094;27;20028;-65
2021/11/06 10:40:30;;;;;;;4.70;1.50;;;2.70;99.90;;;;;;5134351;27;20027;-64
2021/11/06 10:42:57;;;;;;;7.25;3.15;;;2.70;99.90;;;;;;5134185;27;20027;-65
2021/11/06 10:45:32;;;;;;;7.57;3.67;;;2.70;99.90;;;;;;5133881;27;20039;-64
2021/11/06 10:48:03;;;;;;;4.57;2.65;;;2.70;99.90;;;;;;5133716;27;20058;-64
2021/11/06 10:51:03;;;;;;;1.50;1.30;;;2.60;99.90;;;;;;5133869;27;20019;-64
2021/11/06 10:53:44;;;;;;;2.00;1.00;;;2.70;99.90;;;;;;5133801;27;20417;-64
2021/11/06 10:56:27;;;;;;;1.60;0.80;;;2.70;99.90;;;;;;5133762;27;20501;-64
2021/11/06 10:58:56;;;;;;;1.45;0.80;;;2.60;99.90;;;;;;5133682;27;20031;-64
2021/11/06 11:01:32;;;;;;;2.08;0.90;;;2.70;99.90;;;;;;5133378;27;20126;-64
2021/11/06 11:04:01;;;;;;;3.17;1.10;;;2.70;99.90;;;;;;5133308;27;20025;-64
2021/11/06 11:06:32;;;;;;;1.25;0.90;;;2.70;99.90;;;;;;5133505;27;20057;-64
2021/11/06 11:08:58;;;;;;;3.00;0.90;;;2.70;99.90;;;;;;5141574;27;20058;-64
2021/11/06 11:11:28;;;;;;;0.70;0.70;;;2.70;99.90;;;;;;5139415;27;20023;-64
2021/11/06 11:14:21;;;;;;;1.20;0.80;;;2.60;99.90;;;;;;5140229;27;20529;-64
2021/11/06 11:16:59;;;;;;;0.88;0.60;;;2.60;99.90;;;;;;5154251;27;20516;-65
2021/11/06 11:19:35;;;;;;;0.77;0.63;;;2.60;99.90;;;;;;5154251;27;20027;-64
2021/11/06 11:22:03;;;;;;;3.15;0.80;;;2.60;99.90;;;;;;5154085;27;20067;-66
2021/11/06 11:24:29;;;;;;;4.18;0.70;;;2.60;99.90;;;;;;5154383;27;20022;-65
2021/11/06 11:26:59;;;;;;;0.80;0.55;;;2.60;99.90;;;;;;5154334;27;20030;-65
2021/11/06 11:29:35;;;;;;;2.97;0.70;;;2.60;99.90;;;;;;5142241;27;20030;-65
2021/11/06 11:32:02;;;;;;;1.45;0.90;;;2.70;99.90;;;;;;5132367;27;20027;-65
2021/11/06 11:34:28;;;;;;;0.73;0.60;;;2.70;99.90;;;;;;5133040;27;20030;-65
2021/11/06 11:36:54;;;;;;;0.50;0.50;;;2.70;99.90;;;;;;5132915;27;20391;-65
2021/11/06 11:39:26;;;;;;;0.68;0.63;;;2.70;99.90;;;;;;5133272;27;20095;-65
2021/11/06 11:42:06;;;;;;;0.60;0.60;;;2.70;99.90;;;;;;5132214;27;20072;-65
2021/11/06 11:44:55;;;;;;;;;;;2.60;99.90;;;;;;5132633;27;20027;-63
2021/11/06 11:47:23;;;;;;;4.05;0.95;;;2.70;99.90;;;;;;5132031;27;19914;-65
2021/11/06 11:49:57;;;;;;;0.70;0.70;;;2.70;99.90;;;;;;5133014;27;20030;-65
2021/11/06 11:52:32;;;;;;;1.05;0.60;;;2.70;99.90;;;;;;5132322;28;20442;-65
2021/11/06 11:55:01;;;;;;;0.82;0.60;;;2.70;99.90;;;;;;5133201;27;20023;-65
2021/11/06 11:57:27;;;;;;;0.88;0.70;;;2.70;99.90;;;;;;5132883;28;20367;-65
2021/11/06 11:59:54;;;;;;;2.00;0.70;;;2.70;99.90;;;;;;5132764;28;20054;-65
2021/11/06 12:02:31;;;;;;;0.75;0.75;;;2.70;99.90;;;;;;5132697;28;20053;-65
2021/11/06 12:05:15;;;;;;;0.63;0.60;;;2.70;99.90;;;;;;5133060;28;20035;-65
2021/11/06 12:07:43;;;;;;;1.45;0.60;;;2.70;99.90;;;;;;5142995;27;20056;-65
2021/11/06 12:10:35;;;;;;;1.15;0.80;;;2.70;99.90;;;;;;5153188;27;20019;-66
2021/11/06 12:13:02;;;;;;;3.47;0.80;;;2.70;99.90;;;;;;5153298;27;20471;-66
2021/11/06 12:15:57;;;;;;;1.15;0.70;;;2.70;99.90;;;;;;5153606;27;20015;-65
2021/11/06 12:18:43;;;;;;;0.80;0.70;;;2.70;99.90;;;;;;5153296;27;20110;-65
2021/11/06 12:23:43;;;;;;;0.50;0.50;;;2.70;99.90;;;;;;5153330;27;20152;-65
2021/11/06 12:26:15;;;;;;;2.38;0.70;;;2.70;99.90;;;;;;5152941;27;20035;-65
2021/11/06 12:28:42;;;;;;;0.63;0.60;;;2.80;99.90;;;;;;5153216;27;20489;-65
2021/11/06 12:31:27;;;;;;;1.73;0.98;;;2.80;99.90;;;;;;5152947;27;20023;-65
2021/11/06 12:33:53;;;;;;;1.00;0.70;;;2.80;99.90;;;;;;5153119;27;20511;-66
2021/11/06 12:36:23;;;;;;;1.15;0.90;;;2.80;99.90;;;;;;5152999;27;20027;-65
2021/11/06 12:38:53;;;;;;;2.35;0.70;;;2.80;99.90;;;;;;5153187;27;20033;-66
2021/11/06 12:41:29;;;;;;;1.10;0.57;;;2.80;99.90;;;;;;5153080;27;20075;-65
2021/11/06 12:43:57;;;;;;;1.60;0.80;;;2.90;99.90;;;;;;5153364;27;20114;-66
2021/11/06 12:46:29;;;;;;;0.65;0.65;;;2.90;99.90;;;;;;5152684;27;20404;-65
2021/11/06 12:48:58;;;;;;;0.73;0.70;;;2.80;99.90;;;;;;5153174;27;20114;-65
2021/11/06 12:51:33;;;;;;;0.60;0.60;;;2.70;99.90;;;;;;5148586;27;20027;-65
2021/11/06 12:54:04;;;;;;;2.15;0.73;;;2.70;99.90;;;;;;5131900;27;20022;-65
2021/11/06 12:56:54;;;;;;;0.57;0.57;;;2.70;99.90;;;;;;5131209;27;20098;-65
2021/11/06 12:59:22;;;;;;;0.60;0.60;;;2.70;99.90;;;;;;5134721;27;20011;-65
2021/11/06 13:01:59;;;;;;;0.70;0.70;;;2.70;99.90;;;;;;5135936;27;20031;-65
2021/11/06 13:04:25;;;;;;;1.17;0.70;;;2.70;99.90;;;;;;5136149;27;20035;-65
2021/11/06 13:06:54;;;;;;;0.75;0.70;;;2.60;99.90;;;;;;5136197;27;20106;-65
2021/11/06 13:09:23;;;;;;;0.90;0.90;;;2.60;99.90;;;;;;5135726;27;20026;-65
2021/11/06 13:11:48;;;;;;;0.85;0.70;;;2.60;99.90;;;;;;5144112;27;20481;-65
2021/11/06 13:14:47;;;;;;;3.08;0.80;;;2.60;99.90;;;;;;5146732;27;20026;-65
2021/11/06 13:17:26;;;;;;;2.67;0.70;;;2.50;99.90;;;;;;5156767;27;20023;-65
2021/11/06 13:20:05;;;;;;;1.65;0.70;;;2.60;99.90;;;;;;5156630;27;20030;-66
2021/11/06 13:22:31;;;;;;;0.65;0.65;;;2.60;99.90;;;;;;5156425;27;20034;-66
2021/11/06 13:24:58;;;;;;;1.10;0.70;;;2.50;99.90;;;;;;5156388;27;20027;-66
2021/11/06 13:28:01;;;;;;;1.77;0.70;;;2.50;99.90;;;;;;5156252;27;20774;-66
2021/11/06 13:30:40;;;;;;;0.70;0.55;;;2.50;99.90;;;;;;5145823;27;20034;-66
2021/11/06 13:33:12;;;;;;;1.20;0.80;;;2.50;99.90;;;;;;5156021;27;20488;-66
2021/11/06 13:36:01;;;;;;;0.90;0.80;;;2.50;99.90;;;;;;5156336;27;20033;-66